Time;durP1;ratioP1;P1;durP2;ratioP2;P2;SDS_P1;SDS_P2;PMS_P1;PMS_P2;Temp;Humidity;BMP_temperature;BMP_pressure;BME280_temperature;BME280_humidity;BME280_pressure;Samples;Min_cycle;Max_cycle;Signal;HPM_P1;HPM_P2
2022/10/28 00:01:38;;;;;;;6.57;4.90;;;14.60;99.90;;;;;;5032933;28;20305;-85
2022/10/28 00:04:06;;;;;;;4.80;4.33;;;14.60;99.90;;;;;;5035403;28;20257;-84
2022/10/28 00:06:35;;;;;;;5.90;5.10;;;14.50;99.90;;;;;;5036238;28;20191;-84
2022/10/28 00:09:04;;;;;;;4.53;4.13;;;14.50;99.90;;;;;;5040463;28;20723;-84
2022/10/28 00:11:34;;;;;;;4.67;4.27;;;14.40;99.90;;;;;;5037874;28;20202;-83
2022/10/28 00:14:05;;;;;;;4.53;4.00;;;14.50;99.90;;;;;;5043650;28;20670;-85
2022/10/28 00:16:35;;;;;;;3.87;3.50;;;14.60;99.90;;;;;;5021648;28;20206;-84
2022/10/28 00:19:04;;;;;;;3.37;3.07;;;14.50;99.90;;;;;;5041914;28;20658;-85
2022/10/28 00:21:34;;;;;;;4.13;3.73;;;14.60;99.90;;;;;;5042360;28;20214;-86
2022/10/28 00:24:01;;;;;;;3.20;3.00;;;14.60;99.90;;;;;;5039684;28;20206;-87
2022/10/28 00:26:31;;;;;;;4.50;4.10;;;14.60;99.90;;;;;;5038414;28;20202;-87
2022/10/28 00:29:02;;;;;;;7.27;6.33;;;14.60;99.90;;;;;;5043757;28;20189;-88
2022/10/28 00:31:31;;;;;;;5.33;4.80;;;14.60;99.90;;;;;;5046132;28;20213;-92
2022/10/28 00:33:59;;;;;;;4.87;4.47;;;14.60;99.90;;;;;;5053206;28;20198;-89
2022/10/28 00:36:28;;;;;;;5.17;4.33;;;14.60;99.90;;;;;;5034758;28;20217;-91
2022/10/28 00:38:56;;;;;;;3.80;3.50;;;14.60;99.90;;;;;;5046919;28;20205;-87
2022/10/28 00:41:26;;;;;;;6.93;5.93;;;14.50;99.90;;;;;;5047261;28;20764;-89
2022/10/28 00:43:56;;;;;;;4.97;4.50;;;14.50;99.90;;;;;;5039191;28;20206;-90
2022/10/28 00:46:28;;;;;;;5.77;5.10;;;14.50;99.90;;;;;;5039342;28;20189;-89
2022/10/28 00:49:00;;;;;;;4.67;4.27;;;14.50;99.90;;;;;;5038530;28;20202;-88
2022/10/28 00:51:46;;;;;;;5.33;4.83;;;14.50;99.90;;;;;;5034491;28;20247;-87
2022/10/28 00:54:18;;;;;;;5.27;4.70;;;14.50;99.90;;;;;;5041755;28;20190;-92
2022/10/28 00:56:49;;;;;;;5.33;4.70;;;14.50;99.90;;;;;;5021155;28;20194;-89
2022/10/28 00:59:21;;;;;;;4.23;3.83;;;14.40;99.90;;;;;;5034063;28;20565;-92
2022/10/28 01:01:48;;;;;;;4.43;4.03;;;14.40;99.90;;;;;;5034696;28;20206;-90
2022/10/28 01:04:21;;;;;;;4.27;3.87;;;14.40;99.90;;;;;;5043975;28;20244;-89
2022/10/28 01:06:49;;;;;;;3.10;2.90;;;14.40;99.90;;;;;;5030803;28;20207;-88
2022/10/28 01:09:16;;;;;;;4.20;3.80;;;14.40;99.90;;;;;;5053509;28;20232;-87
2022/10/28 01:11:55;;;;;;;5.47;4.60;;;14.40;99.90;;;;;;5056614;28;20273;-89
2022/10/28 01:14:40;;;;;;;5.20;4.70;;;15.10;99.90;;;;;;5041869;28;20198;-88
2022/10/28 01:17:29;;;;;;;7.47;5.77;;;14.40;99.90;;;;;;5045965;28;20189;-86
2022/10/28 01:20:29;;;;;;;6.27;5.67;;;14.40;99.90;;;;;;5038682;28;20213;-88
2022/10/28 01:23:05;;;;;;;5.70;5.10;;;14.40;99.90;;;;;;5030230;28;20256;-88
2022/10/28 01:26:05;;;;;;;5.33;4.83;;;14.40;99.90;;;;;;5042543;28;20289;-90
2022/10/28 01:28:53;;;;;;;5.37;4.87;;;14.40;99.90;;;;;;5043413;28;20201;-89
2022/10/28 01:31:29;;;;;;;7.87;6.27;;;14.40;99.90;;;;;;5040554;28;20201;-90
2022/10/28 01:34:08;;;;;;;4.57;4.17;;;14.40;99.90;;;;;;5042561;28;20194;-88
2022/10/28 01:36:40;;;;;;;4.47;4.10;;;14.30;99.90;;;;;;5043169;28;20197;-88
2022/10/28 01:39:18;;;;;;;5.00;4.50;;;14.30;99.90;;;;;;5027434;28;20317;-90
2022/10/28 01:41:51;;;;;;;4.40;4.10;;;14.30;99.90;;;;;;5042837;28;20211;-89
2022/10/28 01:44:25;;;;;;;5.40;4.90;;;14.30;99.90;;;;;;5041332;28;20285;-87
2022/10/28 01:47:00;;;;;;;4.17;3.77;;;14.30;99.90;;;;;;5042092;28;20199;-90
2022/10/28 01:49:38;;;;;;;7.23;5.57;;;14.30;99.90;;;;;;5044088;28;20206;-91
2022/10/28 01:52:10;;;;;;;5.00;4.27;;;14.20;99.90;;;;;;5044490;28;20464;-89
2022/10/28 01:54:40;;;;;;;4.10;3.80;;;14.20;99.90;;;;;;5041562;28;20194;-90
2022/10/28 01:57:09;;;;;;;3.53;3.23;;;14.20;99.90;;;;;;5041519;28;20205;-90
2022/10/28 01:59:38;;;;;;;3.47;3.17;;;14.20;99.90;;;;;;5039067;28;20216;-91
2022/10/28 02:02:06;;;;;;;5.10;4.60;;;14.20;99.90;;;;;;5043787;28;20266;-91
2022/10/28 02:04:34;;;;;;;6.67;5.27;;;14.20;99.90;;;;;;5043808;28;20324;-93
2022/10/28 02:07:01;;;;;;;6.17;4.73;;;14.20;99.90;;;;;;5041931;28;20198;-93
2022/10/28 02:09:40;;;;;;;6.27;4.27;;;14.20;99.90;;;;;;5040724;28;20226;-92
2022/10/28 02:12:24;;;;;;;6.60;4.30;;;14.20;99.90;;;;;;5046119;28;20193;-92
2022/10/28 02:15:19;;;;;;;5.53;4.40;;;14.20;99.90;;;;;;5045186;28;20193;-90
2022/10/28 02:18:03;;;;;;;9.43;5.57;;;14.20;99.90;;;;;;5041505;28;20240;-90
2022/10/28 02:20:40;;;;;;;6.13;4.70;;;14.20;99.90;;;;;;5047841;28;20201;-89
2022/10/28 02:23:20;;;;;;;5.10;4.60;;;14.30;99.90;;;;;;5041483;28;20610;-87
2022/10/28 02:25:54;;;;;;;5.53;4.50;;;14.30;99.90;;;;;;5034320;28;20297;-92
2022/10/28 02:28:25;;;;;;;4.50;4.10;;;14.30;99.90;;;;;;5046197;28;20196;-92
2022/10/28 02:30:59;;;;;;;5.27;4.60;;;14.30;99.90;;;;;;5044976;28;20196;-92
2022/10/28 02:33:32;;;;;;;4.70;4.30;;;14.20;99.90;;;;;;5044839;28;20190;-91
2022/10/28 02:36:03;;;;;;;3.33;3.03;;;14.20;99.90;;;;;;5050024;28;20198;-91
2022/10/28 02:38:34;;;;;;;3.50;3.20;;;14.20;99.90;;;;;;5045643;28;20205;-92
2022/10/28 02:41:06;;;;;;;4.23;3.73;;;14.20;99.90;;;;;;5048896;28;20194;-91
2022/10/28 02:43:37;;;;;;;4.30;3.90;;;14.20;99.90;;;;;;5045027;28;20209;-90
2022/10/28 02:46:06;;;;;;;5.30;4.57;;;14.20;99.90;;;;;;5028482;28;20195;-92
2022/10/28 02:48:39;;;;;;;4.50;4.10;;;14.20;99.90;;;;;;5038840;28;20561;-92
2022/10/28 02:51:10;;;;;;;5.40;4.87;;;14.20;99.90;;;;;;5040110;28;20198;-90
2022/10/28 02:53:47;;;;;;;4.97;4.57;;;14.10;99.90;;;;;;5035143;28;20187;-89
2022/10/28 02:56:17;;;;;;;4.27;3.87;;;14.10;99.90;;;;;;5052018;28;20209;-89
2022/10/28 02:58:45;;;;;;;3.97;3.57;;;14.10;99.90;;;;;;5044749;28;20603;-90
2022/10/28 03:01:12;;;;;;;3.80;3.50;;;14.10;99.90;;;;;;5048924;28;20199;-90
2022/10/28 03:03:41;;;;;;;5.37;4.70;;;14.10;99.90;;;;;;5048945;28;20244;-90
2022/10/28 03:06:09;;;;;;;5.07;4.67;;;14.10;99.90;;;;;;5045824;28;20212;-88
2022/10/28 03:08:36;;;;;;;4.40;4.10;;;14.10;99.90;;;;;;5037160;28;20202;-90
2022/10/28 03:11:03;;;;;;;4.40;4.00;;;14.10;99.90;;;;;;5046746;28;20202;-90
2022/10/28 03:13:30;;;;;;;4.87;4.43;;;14.20;99.90;;;;;;5031724;28;20275;-91
2022/10/28 03:15:57;;;;;;;5.10;4.60;;;14.20;99.90;;;;;;5045774;28;20190;-90
2022/10/28 03:18:25;;;;;;;6.27;5.67;;;14.20;99.90;;;;;;5046771;28;20288;-91
2022/10/28 03:20:53;;;;;;;6.50;5.70;;;14.20;99.90;;;;;;5027229;28;20210;-88
2022/10/28 03:23:20;;;;;;;5.40;4.90;;;14.20;99.90;;;;;;5040525;28;20636;-88
2022/10/28 03:25:47;;;;;;;5.47;4.97;;;14.20;99.90;;;;;;5040585;28;20686;-89
2022/10/28 03:28:15;;;;;;;5.13;4.70;;;14.20;99.90;;;;;;5039978;28;20198;-88
2022/10/28 03:30:42;;;;;;;5.67;5.17;;;14.20;99.90;;;;;;5043400;28;20197;-88
2022/10/28 03:33:09;;;;;;;4.50;4.10;;;14.20;99.90;;;;;;5038589;28;20212;-88
2022/10/28 03:35:37;;;;;;;4.70;4.30;;;14.20;99.90;;;;;;5044062;28;20670;-88
2022/10/28 03:38:05;;;;;;;4.40;4.00;;;14.20;99.90;;;;;;5041408;28;20194;-88
2022/10/28 03:40:33;;;;;;;5.70;5.20;;;14.20;99.90;;;;;;5032695;28;20726;-87
2022/10/28 03:43:00;;;;;;;6.40;5.57;;;14.20;99.90;;;;;;5039466;28;20312;-89
2022/10/28 03:45:27;;;;;;;6.33;5.10;;;14.20;99.90;;;;;;5051597;28;20225;-88
2022/10/28 03:47:54;;;;;;;9.50;7.40;;;14.30;99.90;;;;;;5049902;28;20217;-88
2022/10/28 03:50:21;;;;;;;8.87;7.00;;;14.30;99.90;;;;;;5030135;28;20193;-88
2022/10/28 03:52:48;;;;;;;9.27;7.70;;;14.20;99.90;;;;;;5039738;28;20244;-87
2022/10/28 03:55:17;;;;;;;6.10;5.50;;;14.20;99.90;;;;;;5049061;28;20205;-88
2022/10/28 03:57:44;;;;;;;5.17;4.67;;;14.20;99.90;;;;;;5043018;28;20677;-87
2022/10/28 04:00:14;;;;;;;5.77;5.23;;;14.20;99.90;;;;;;5040729;28;20696;-90
2022/10/28 04:02:41;;;;;;;7.43;6.10;;;14.20;99.90;;;;;;5040009;28;20224;-88
2022/10/28 04:05:08;;;;;;;5.87;5.20;;;14.20;99.90;;;;;;5050942;28;20277;-90
2022/10/28 04:07:36;;;;;;;4.83;4.43;;;14.20;99.90;;;;;;5046185;28;20199;-90
2022/10/28 04:10:03;;;;;;;5.80;5.20;;;14.20;99.90;;;;;;5048667;28;20194;-90
2022/10/28 04:12:31;;;;;;;5.37;4.87;;;14.20;99.90;;;;;;5047958;28;20224;-89
2022/10/28 04:14:58;;;;;;;8.87;7.83;;;14.20;99.90;;;;;;5065866;28;20189;-89
2022/10/28 04:17:26;;;;;;;6.83;6.10;;;14.20;99.90;;;;;;5061859;28;20205;-87
2022/10/28 04:19:53;;;;;;;5.90;5.30;;;14.20;99.90;;;;;;5057381;28;20185;-88
2022/10/28 04:22:20;;;;;;;7.90;6.43;;;14.20;99.90;;;;;;5048119;28;20236;-89
2022/10/28 04:24:47;;;;;;;6.00;5.20;;;14.20;99.90;;;;;;5040014;28;20200;-88
2022/10/28 04:27:14;;;;;;;8.30;6.83;;;14.20;99.90;;;;;;5041064;28;20198;-89
2022/10/28 04:29:46;;;;;;;6.43;5.83;;;14.20;99.90;;;;;;5024939;28;20204;-89
2022/10/28 04:32:13;;;;;;;6.47;5.67;;;14.20;99.90;;;;;;5038145;28;21004;-89
2022/10/28 04:34:40;;;;;;;5.63;5.10;;;14.20;99.90;;;;;;5041894;28;20190;-89
2022/10/28 04:37:07;;;;;;;8.53;7.63;;;14.20;99.90;;;;;;5028454;28;20211;-86
2022/10/28 04:39:35;;;;;;;12.07;9.30;;;14.20;99.90;;;;;;5041436;28;20190;-88
2022/10/28 04:42:02;;;;;;;9.73;7.93;;;14.20;99.90;;;;;;5035824;28;20206;-87
2022/10/28 04:44:29;;;;;;;9.43;8.37;;;14.20;99.90;;;;;;5039471;28;20209;-86
2022/10/28 04:46:58;;;;;;;7.17;6.20;;;14.20;99.90;;;;;;5038111;28;20198;-87
2022/10/28 04:49:25;;;;;;;8.27;7.10;;;14.20;99.90;;;;;;5031618;28;20190;-88
2022/10/28 04:51:52;;;;;;;11.33;8.37;;;14.20;99.90;;;;;;5032905;28;20218;-87
2022/10/28 04:54:19;;;;;;;11.57;8.80;;;14.20;99.90;;;;;;5045752;28;20219;-88
2022/10/28 04:56:46;;;;;;;9.33;7.47;;;14.20;99.90;;;;;;5042445;28;20204;-85
2022/10/28 04:59:14;;;;;;;10.90;8.77;;;14.20;99.90;;;;;;5039257;28;20202;-88
2022/10/28 05:01:41;;;;;;;12.67;9.33;;;14.20;99.90;;;;;;5058144;28;20200;-86
2022/10/28 05:04:09;;;;;;;14.30;10.10;;;14.20;99.90;;;;;;5043565;28;20265;-87
2022/10/28 05:06:36;;;;;;;14.13;10.77;;;14.10;99.90;;;;;;5041250;28;20190;-87
2022/10/28 05:09:04;;;;;;;14.50;11.13;;;14.00;99.90;;;;;;5023823;28;20263;-87
2022/10/28 05:11:31;;;;;;;12.77;10.03;;;14.00;99.90;;;;;;5043724;28;20195;-87
2022/10/28 05:13:58;;;;;;;14.63;10.90;;;13.90;99.90;;;;;;5041928;28;20190;-86
2022/10/28 05:16:25;;;;;;;14.10;10.67;;;13.90;99.90;;;;;;5048536;28;20197;-87
2022/10/28 05:18:52;;;;;;;9.93;8.07;;;13.90;99.90;;;;;;5043091;28;20195;-87
2022/10/28 05:21:21;;;;;;;12.10;9.17;;;13.90;99.90;;;;;;5045945;28;20847;-87
2022/10/28 05:23:48;;;;;;;11.13;8.07;;;14.00;99.90;;;;;;5045459;28;20214;-87
2022/10/28 05:26:15;;;;;;;9.67;7.87;;;14.00;99.90;;;;;;5032980;28;20673;-86
2022/10/28 05:28:43;;;;;;;8.07;6.67;;;14.10;99.90;;;;;;5036766;28;20198;-87
2022/10/28 05:31:10;;;;;;;12.37;10.07;;;14.10;99.90;;;;;;5041269;28;20205;-89
2022/10/28 05:33:37;;;;;;;15.00;11.57;;;14.10;99.90;;;;;;5040311;28;20193;-87
2022/10/28 05:36:05;;;;;;;15.73;11.33;;;14.20;99.90;;;;;;5038543;28;20201;-87
2022/10/28 05:38:33;;;;;;;16.27;10.73;;;14.20;99.90;;;;;;5039016;28;20195;-86
2022/10/28 05:41:02;;;;;;;15.27;11.47;;;14.20;99.90;;;;;;5045867;28;20608;-87
2022/10/28 05:43:29;;;;;;;14.57;11.20;;;14.10;99.90;;;;;;5036835;28;20556;-87
2022/10/28 05:45:57;;;;;;;16.63;11.97;;;14.10;99.90;;;;;;5041408;28;20198;-87
2022/10/28 05:48:25;;;;;;;16.57;12.20;;;14.10;99.90;;;;;;5037553;28;20183;-88
2022/10/28 05:50:52;;;;;;;17.23;12.40;;;14.00;99.90;;;;;;5032825;28;20212;-86
2022/10/28 05:53:19;;;;;;;16.33;11.83;;;14.10;99.90;;;;;;5039142;28;20684;-88
2022/10/28 05:55:48;;;;;;;15.90;11.80;;;14.00;99.90;;;;;;5044301;28;20208;-88
2022/10/28 05:58:15;;;;;;;18.07;12.50;;;14.00;99.90;;;;;;5038734;28;20201;-87
2022/10/28 06:00:42;;;;;;;15.40;11.90;;;13.90;99.90;;;;;;5045453;28;20709;-89
2022/10/28 06:03:12;;;;;;;17.60;12.37;;;13.90;99.90;;;;;;5014138;28;20736;-89
2022/10/28 06:05:41;;;;;;;21.57;13.37;;;13.90;99.90;;;;;;5025265;28;20202;-89
2022/10/28 06:08:10;;;;;;;17.03;12.20;;;13.80;99.90;;;;;;5017423;28;20663;-89
2022/10/28 06:10:37;;;;;;;20.87;12.70;;;13.80;99.90;;;;;;5026605;28;20206;-87
2022/10/28 06:13:06;;;;;;;17.23;11.60;;;13.80;99.90;;;;;;5020915;28;20200;-89
2022/10/28 06:15:33;;;;;;;17.23;12.03;;;13.80;99.90;;;;;;5023816;28;20541;-89
2022/10/28 06:18:00;;;;;;;16.07;11.90;;;13.80;99.90;;;;;;5022853;28;20201;-87
2022/10/28 06:20:27;;;;;;;18.23;11.77;;;13.80;99.90;;;;;;5019094;28;20201;-86
2022/10/28 06:22:56;;;;;;;18.50;12.93;;;13.80;99.90;;;;;;5026673;28;20210;-89
2022/10/28 06:25:25;;;;;;;15.57;11.13;;;13.80;99.90;;;;;;5023939;28;20210;-88
2022/10/28 06:27:55;;;;;;;19.63;13.20;;;13.80;99.90;;;;;;5021938;28;20267;-88
2022/10/28 06:30:25;;;;;;;19.00;12.80;;;13.80;99.90;;;;;;5024276;28;20691;-87
2022/10/28 06:32:52;;;;;;;23.10;14.17;;;13.70;99.90;;;;;;5036738;28;20265;-87
2022/10/28 06:35:19;;;;;;;24.07;14.27;;;13.70;99.90;;;;;;5025177;28;20201;-88
2022/10/28 06:37:46;;;;;;;24.23;15.00;;;13.70;99.90;;;;;;5033889;28;20216;-86
2022/10/28 06:40:14;;;;;;;28.87;16.93;;;13.60;99.90;;;;;;5032892;28;20199;-87
2022/10/28 06:42:41;;;;;;;25.40;15.90;;;13.60;99.90;;;;;;5033612;28;20214;-86
2022/10/28 06:45:09;;;;;;;25.80;15.43;;;13.60;99.90;;;;;;5025530;28;20272;-88
2022/10/28 06:47:37;;;;;;;23.43;15.50;;;13.50;99.90;;;;;;5028159;28;20251;-89
2022/10/28 06:50:05;;;;;;;27.23;16.87;;;13.50;99.90;;;;;;5014071;28;20280;-89
2022/10/28 06:52:32;;;;;;;28.40;15.57;;;13.50;99.90;;;;;;5019650;28;20666;-88
2022/10/28 06:54:59;;;;;;;26.10;15.57;;;13.50;99.90;;;;;;5023833;28;20273;-87
2022/10/28 06:57:26;;;;;;;25.10;16.20;;;13.50;99.90;;;;;;5020991;28;20802;-88
2022/10/28 06:59:54;;;;;;;23.30;13.87;;;13.50;99.90;;;;;;5020854;28;20193;-88
2022/10/28 07:02:21;;;;;;;26.87;16.47;;;13.50;99.90;;;;;;5019462;28;20199;-89
2022/10/28 07:04:50;;;;;;;25.00;15.60;;;13.50;99.90;;;;;;5029595;28;20681;-88
2022/10/28 07:07:18;;;;;;;32.40;16.43;;;13.60;99.90;;;;;;5031158;28;20554;-88
2022/10/28 07:09:45;;;;;;;27.43;16.07;;;13.60;99.90;;;;;;5015732;28;20205;-87
2022/10/28 07:12:12;;;;;;;27.93;16.57;;;13.50;99.90;;;;;;5028042;28;20205;-89
2022/10/28 07:14:40;;;;;;;26.13;16.47;;;13.50;99.90;;;;;;5028449;28;20203;-87
2022/10/28 07:17:07;;;;;;;25.27;15.60;;;13.60;99.90;;;;;;5034999;28;20200;-89
2022/10/28 07:19:34;;;;;;;29.17;16.77;;;13.60;99.90;;;;;;5015026;28;20199;-87
2022/10/28 07:22:03;;;;;;;31.13;15.90;;;13.60;99.90;;;;;;5020334;28;20198;-88
2022/10/28 07:24:30;;;;;;;28.97;16.30;;;13.60;99.90;;;;;;5038741;28;20201;-88
2022/10/28 07:26:57;;;;;;;26.17;15.70;;;13.60;99.90;;;;;;5017737;28;20205;-87
2022/10/28 07:29:24;;;;;;;29.87;16.00;;;13.60;99.90;;;;;;5020684;28;20300;-88
2022/10/28 07:31:54;;;;;;;30.60;16.23;;;13.60;99.90;;;;;;5005998;28;20673;-88
2022/10/28 07:34:21;;;;;;;26.40;16.73;;;13.60;99.90;;;;;;5021188;28;20190;-89
2022/10/28 07:36:49;;;;;;;26.07;16.10;;;13.60;99.90;;;;;;5015729;28;20199;-87
2022/10/28 07:39:18;;;;;;;28.00;16.80;;;13.60;99.90;;;;;;5025510;28;20212;-87
2022/10/28 07:41:46;;;;;;;31.17;16.87;;;13.60;99.90;;;;;;5026380;28;20235;-87
2022/10/28 07:44:13;;;;;;;27.10;16.77;;;13.60;99.90;;;;;;5033628;28;20243;-89
2022/10/28 07:46:40;;;;;;;35.87;16.43;;;13.60;99.90;;;;;;5020686;28;20298;-88
2022/10/28 07:49:08;;;;;;;32.37;16.60;;;13.70;99.90;;;;;;5032515;28;20214;-89
2022/10/28 07:51:35;;;;;;;32.57;16.77;;;13.70;99.90;;;;;;5027420;28;20200;-89
2022/10/28 07:54:02;;;;;;;27.47;16.23;;;13.70;99.90;;;;;;5029468;28;20297;-89
2022/10/28 07:56:33;;;;;;;28.57;16.83;;;13.70;99.90;;;;;;5019845;28;20198;-92
2022/10/28 07:59:00;;;;;;;32.17;17.03;;;13.70;99.90;;;;;;5026626;28;20295;-85
2022/10/28 08:01:28;;;;;;;29.70;16.37;;;13.80;99.90;;;;;;5013781;28;20206;-89
2022/10/28 08:03:55;;;;;;;31.47;16.80;;;13.80;99.90;;;;;;5030981;28;20237;-90
2022/10/28 08:06:22;;;;;;;31.73;18.07;;;13.80;99.90;;;;;;5039712;28;20204;-87
2022/10/28 08:08:54;;;;;;;25.70;16.03;;;13.90;99.90;;;;;;5038171;28;20244;-90
2022/10/28 08:11:22;;;;;;;31.60;16.23;;;13.90;99.90;;;;;;5040501;28;20201;-90
2022/10/28 08:13:52;;;;;;;23.80;14.70;;;13.90;99.90;;;;;;5037465;28;20189;-89
2022/10/28 08:16:20;;;;;;;28.50;14.70;;;14.00;99.90;;;;;;5033037;28;20292;-90
2022/10/28 08:18:47;;;;;;;27.63;15.37;;;14.20;99.90;;;;;;5041138;28;20204;-91
2022/10/28 08:21:15;;;;;;;25.43;13.97;;;14.70;99.90;;;;;;5036886;28;20201;-89
2022/10/28 08:23:45;;;;;;;27.57;14.63;;;14.20;99.90;;;;;;5039778;28;20197;-89
2022/10/28 08:26:13;;;;;;;29.33;16.00;;;14.20;99.90;;;;;;5038387;28;20216;-89
2022/10/28 08:28:41;;;;;;;26.03;15.53;;;14.20;99.90;;;;;;5034718;28;20197;-87
2022/10/28 08:31:11;;;;;;;26.10;15.57;;;14.30;99.90;;;;;;5032361;28;20255;-88
2022/10/28 08:33:40;;;;;;;31.13;16.50;;;14.30;99.90;;;;;;5037930;28;20739;-91
2022/10/28 08:36:09;;;;;;;28.77;14.90;;;14.40;99.90;;;;;;5039574;28;20208;-89
2022/10/28 08:38:36;;;;;;;23.40;13.80;;;14.40;99.90;;;;;;5038702;28;20202;-87
2022/10/28 08:41:14;;;;;;;26.33;15.20;;;14.50;99.90;;;;;;5040908;28;20360;-84
2022/10/28 08:43:55;;;;;;;25.47;14.80;;;14.50;99.90;;;;;;5039985;28;20250;-88
2022/10/28 08:46:32;;;;;;;26.03;15.33;;;14.50;99.90;;;;;;5037905;28;20198;-88
2022/10/28 08:49:02;;;;;;;27.50;16.07;;;14.50;99.90;;;;;;5037673;28;20262;-88
2022/10/28 08:51:37;;;;;;;27.03;16.20;;;14.60;99.90;;;;;;5041337;28;20195;-87
2022/10/28 08:54:13;;;;;;;27.73;15.97;;;14.70;99.90;;;;;;5039222;28;20198;-89
2022/10/28 08:56:44;;;;;;;29.50;16.53;;;14.70;99.90;;;;;;5037504;28;20618;-89
2022/10/28 08:59:18;;;;;;;36.57;17.03;;;14.70;99.90;;;;;;5034694;28;20606;-90
2022/10/28 09:01:50;;;;;;;24.83;15.33;;;14.80;99.90;;;;;;5043099;28;20306;-86
2022/10/28 09:04:26;;;;;;;26.63;15.30;;;14.80;99.90;;;;;;5027481;28;20236;-86
2022/10/28 09:06:54;;;;;;;21.00;12.97;;;14.80;99.90;;;;;;5039105;28;20233;-85
2022/10/28 09:09:22;;;;;;;24.23;13.90;;;14.90;99.90;;;;;;5033687;28;20236;-85
2022/10/28 09:12:10;;;;;;;24.90;14.97;;;15.00;99.90;;;;;;5035618;28;20202;-86
2022/10/28 09:14:51;;;;;;;35.60;18.73;;;15.00;99.90;;;;;;5039077;28;20551;-84
2022/10/28 09:17:23;;;;;;;31.87;18.43;;;15.10;99.90;;;;;;5041165;28;20235;-85
2022/10/28 09:19:52;;;;;;;29.93;16.53;;;15.70;99.90;;;;;;5017950;28;20220;-87
2022/10/28 09:22:25;;;;;;;27.80;16.67;;;15.20;99.90;;;;;;5036671;28;20309;-86
2022/10/28 09:24:56;;;;;;;29.87;17.97;;;15.30;99.90;;;;;;5028106;28;20215;-86
2022/10/28 09:27:40;;;;;;;32.73;18.50;;;15.30;99.90;;;;;;5041949;28;20698;-87
2022/10/28 09:30:30;;;;;;;27.07;16.13;;;15.40;99.90;;;;;;5036388;28;20575;-85
2022/10/28 09:33:07;;;;;;;23.33;14.23;;;15.50;99.90;;;;;;5041084;28;20194;-86
2022/10/28 09:35:40;;;;;;;31.43;17.53;;;15.60;99.90;;;;;;5048630;28;20621;-83
2022/10/28 09:38:16;;;;;;;26.80;16.40;;;15.70;99.90;;;;;;5043013;28;20210;-88
2022/10/28 09:40:49;;;;;;;24.47;14.77;;;15.80;99.90;;;;;;5057240;28;20212;-90
2022/10/28 09:43:24;;;;;;;18.40;11.60;;;15.90;99.90;;;;;;5055086;28;20213;-89
2022/10/28 09:45:55;;;;;;;23.90;14.20;;;15.90;99.90;;;;;;5042018;28;20283;-88
2022/10/28 09:48:27;;;;;;;35.33;18.07;;;16.00;99.90;;;;;;5040747;28;20216;-84
2022/10/28 09:50:56;;;;;;;33.07;18.97;;;16.00;99.90;;;;;;5044481;28;20202;-85
2022/10/28 09:53:33;;;;;;;28.93;17.87;;;16.10;99.90;;;;;;5042406;28;20208;-89
2022/10/28 09:56:01;;;;;;;33.30;19.70;;;16.20;99.90;;;;;;5041211;28;20191;-87
2022/10/28 09:58:28;;;;;;;26.53;16.87;;;16.20;99.90;;;;;;5039944;28;20197;-83
2022/10/28 10:00:55;;;;;;;29.63;18.53;;;16.30;99.90;;;;;;5039575;28;20277;-88
2022/10/28 10:03:24;;;;;;;27.57;17.47;;;16.30;99.90;;;;;;5034627;28;20241;-87
2022/10/28 10:05:54;;;;;;;32.13;17.97;;;16.40;99.90;;;;;;5046906;28;20280;-85
2022/10/28 10:08:22;;;;;;;27.93;16.10;;;16.50;99.90;;;;;;5044815;28;20191;-84
2022/10/28 10:10:52;;;;;;;23.43;16.13;;;16.50;99.90;;;;;;5039727;28;20213;-84
2022/10/28 10:13:25;;;;;;;20.37;13.50;;;16.60;99.90;;;;;;5036693;28;20198;-84
2022/10/28 10:15:59;;;;;;;24.43;15.57;;;16.60;99.90;;;;;;5041522;28;20685;-87
2022/10/28 10:18:31;;;;;;;25.47;15.57;;;16.60;99.90;;;;;;5037565;28;20610;-83
2022/10/28 10:20:59;;;;;;;29.03;16.33;;;16.60;99.90;;;;;;5036905;28;20279;-84
2022/10/28 10:23:29;;;;;;;24.40;15.47;;;16.60;99.90;;;;;;5033126;28;20211;-86
2022/10/28 10:26:04;;;;;;;21.43;12.40;;;16.60;99.90;;;;;;5037587;28;20200;-86
2022/10/28 10:28:33;;;;;;;17.83;11.50;;;16.60;99.90;;;;;;5038702;28;20225;-89
2022/10/28 10:31:03;;;;;;;20.33;12.40;;;16.60;99.90;;;;;;5041248;28;20206;-86
2022/10/28 10:33:34;;;;;;;23.67;14.10;;;16.60;99.90;;;;;;5046150;28;20292;-90
2022/10/28 10:36:05;;;;;;;20.10;11.80;;;16.70;99.90;;;;;;5034530;28;20200;-87
2022/10/28 10:38:32;;;;;;;18.10;10.83;;;16.70;99.90;;;;;;5039290;28;20190;-84
2022/10/28 10:41:00;;;;;;;12.85;10.00;;;16.70;99.90;;;;;;5045354;28;20201;-85
2022/10/28 10:43:31;;;;;;;20.35;12.13;;;16.80;99.90;;;;;;5043802;28;20212;-85
2022/10/28 10:46:04;;;;;;;21.83;14.63;;;16.80;99.90;;;;;;5030081;28;20216;-85
2022/10/28 10:48:35;;;;;;;15.53;11.20;;;16.90;99.90;;;;;;5039672;28;20195;-88
2022/10/28 10:51:06;;;;;;;16.77;11.20;;;16.90;99.90;;;;;;5041473;28;20649;-83
2022/10/28 10:53:35;;;;;;;19.77;12.70;;;16.90;99.90;;;;;;5041906;28;20197;-84
2022/10/28 10:56:04;;;;;;;17.27;11.43;;;16.90;99.90;;;;;;5041289;28;20212;-88
2022/10/28 10:58:34;;;;;;;16.08;10.43;;;16.90;99.90;;;;;;5039462;28;20201;-88
2022/10/28 11:01:04;;;;;;;16.63;11.88;;;17.20;99.90;;;;;;5039259;28;20205;-87
2022/10/28 11:03:37;;;;;;;18.83;12.20;;;17.00;99.90;;;;;;5037240;28;20708;-85
2022/10/28 11:06:06;;;;;;;22.90;13.77;;;17.00;99.90;;;;;;5041921;28;20633;-87
2022/10/28 11:08:37;;;;;;;18.93;11.40;;;17.00;99.90;;;;;;5036222;28;20201;-86
2022/10/28 11:11:07;;;;;;;19.48;13.25;;;17.10;99.90;;;;;;5034222;28;20206;-89
2022/10/28 11:13:36;;;;;;;23.67;13.57;;;17.10;99.90;;;;;;5034896;28;20202;-85
2022/10/28 11:16:05;;;;;;;22.30;13.80;;;17.10;99.90;;;;;;5043660;28;20194;-85
2022/10/28 11:18:42;;;;;;;19.58;13.25;;;17.10;99.90;;;;;;5040989;28;20208;-86
2022/10/28 11:21:27;;;;;;;23.13;13.98;;;17.20;99.90;;;;;;5032700;28;20265;-87
2022/10/28 11:24:07;;;;;;;31.38;16.02;;;17.20;99.90;;;;;;5033643;28;20966;-85
2022/10/28 11:26:41;;;;;;;27.17;17.07;;;17.20;99.90;;;;;;5030644;28;20209;-86
2022/10/28 11:29:10;;;;;;;24.42;15.25;;;17.20;99.90;;;;;;5034309;28;20285;-87
2022/10/28 11:32:00;;;;;;;25.43;15.90;;;17.10;99.90;;;;;;5022998;28;20680;-87
2022/10/28 11:34:44;;;;;;;27.63;15.23;;;17.10;99.90;;;;;;5033929;28;20274;-85
2022/10/28 11:37:20;;;;;;;28.35;15.80;;;17.10;99.90;;;;;;5028479;28;20197;-84
2022/10/28 11:40:00;;;;;;;25.48;14.48;;;17.20;99.90;;;;;;5034556;28;20591;-85
2022/10/28 11:42:35;;;;;;;26.15;14.45;;;17.20;99.90;;;;;;5034809;28;20196;-85
2022/10/28 11:45:08;;;;;;;24.25;15.35;;;17.30;99.90;;;;;;5035230;28;20212;-86
2022/10/28 11:47:59;;;;;;;28.92;16.67;;;17.30;99.90;;;;;;5034139;28;20213;-85
2022/10/28 11:50:39;;;;;;;24.67;15.30;;;17.30;99.90;;;;;;5036286;28;20280;-84
2022/10/28 11:53:22;;;;;;;30.07;18.33;;;17.30;99.90;;;;;;5037651;28;20196;-86
2022/10/28 11:56:01;;;;;;;31.55;18.52;;;17.20;99.90;;;;;;5036260;28;20669;-84
2022/10/28 11:58:37;;;;;;;32.73;19.60;;;17.20;99.90;;;;;;5039217;28;20307;-86
2022/10/28 12:01:23;;;;;;;30.20;17.15;;;17.20;99.90;;;;;;5034072;28;20355;-84
2022/10/28 12:04:02;;;;;;;30.13;17.75;;;17.20;99.90;;;;;;5038025;28;20240;-84
2022/10/28 12:06:50;;;;;;;30.23;17.97;;;17.20;99.90;;;;;;5033627;28;20213;-83
2022/10/28 12:09:27;;;;;;;25.57;15.70;;;17.20;99.90;;;;;;5034587;28;20200;-86
2022/10/28 12:12:07;;;;;;;26.07;16.17;;;17.20;99.90;;;;;;5036396;28;20289;-85
2022/10/28 12:14:42;;;;;;;26.73;16.77;;;17.30;99.90;;;;;;5024665;28;20604;-84
2022/10/28 12:17:16;;;;;;;28.57;17.20;;;17.30;99.90;;;;;;5037747;28;20212;-83
2022/10/28 12:19:47;;;;;;;30.00;17.20;;;17.30;99.90;;;;;;5043941;28;20200;-86
2022/10/28 12:22:22;;;;;;;27.55;17.40;;;17.30;99.90;;;;;;5039703;28;20280;-84
2022/10/28 12:24:52;;;;;;;27.70;15.60;;;17.30;99.90;;;;;;5025866;28;20661;-84
2022/10/28 12:27:25;;;;;;;26.85;16.48;;;17.30;99.90;;;;;;5043656;28;20201;-83
2022/10/28 12:29:58;;;;;;;29.17;17.63;;;17.30;99.90;;;;;;5030051;28;20201;-85
2022/10/28 12:32:29;;;;;;;27.20;15.60;;;17.20;99.90;;;;;;5035516;28;20205;-83
2022/10/28 12:35:03;;;;;;;27.02;16.48;;;17.20;99.90;;;;;;5029572;28;20196;-82
2022/10/28 12:37:38;;;;;;;27.38;16.02;;;17.20;99.90;;;;;;5037256;28;20194;-82
2022/10/28 12:40:12;;;;;;;24.85;16.45;;;17.30;99.90;;;;;;5027890;28;20293;-85
2022/10/28 12:42:43;;;;;;;24.35;15.23;;;17.30;99.90;;;;;;5037709;28;20205;-83
2022/10/28 12:45:15;;;;;;;23.90;14.75;;;17.30;99.90;;;;;;5038946;28;20663;-85
2022/10/28 12:47:47;;;;;;;30.02;14.48;;;17.40;99.90;;;;;;5033776;28;20196;-83
2022/10/28 12:50:23;;;;;;;25.30;14.88;;;17.40;99.90;;;;;;5027244;28;20209;-83
2022/10/28 12:52:58;;;;;;;22.40;14.43;;;17.40;99.90;;;;;;5029491;28;21164;-83
2022/10/28 12:55:33;;;;;;;21.20;14.57;;;17.50;99.90;;;;;;5037365;28;20200;-83